sensor_id;sensor_type;location;lat;lon;timestamp;pressure;altitude;pressure_sealevel;temperature;humidity
65013;BME280;51715;39.432;-77.518;2024-02-26T00:00:05;99713.68;;;6.65;30.02
65013;BME280;51715;39.432;-77.518;2024-02-26T00:02:34;99720.36;;;6.87;29.81
65013;BME280;51715;39.432;-77.518;2024-02-26T00:05:06;99721.83;;;7.15;29.21
65013;BME280;51715;39.432;-77.518;2024-02-26T00:07:36;99721.99;;;7.19;29.29
65013;BME280;51715;39.432;-77.518;2024-02-26T00:10:07;99723.19;;;6.81;30.24
65013;BME280;51715;39.432;-77.518;2024-02-26T00:12:36;99724.37;;;7.29;29.61
65013;BME280;51715;39.432;-77.518;2024-02-26T00:15:05;99719.32;;;7.20;29.75
65013;BME280;51715;39.432;-77.518;2024-02-26T00:17:33;99715.07;;;7.24;29.66
65013;BME280;51715;39.432;-77.518;2024-02-26T00:20:03;99714.99;;;7.15;30.05
65013;BME280;51715;39.432;-77.518;2024-02-26T00:22:32;99713.90;;;6.60;30.66
65013;BME280;51715;39.432;-77.518;2024-02-26T00:25:01;99717.81;;;5.85;31.61
65013;BME280;51715;39.432;-77.518;2024-02-26T00:27:30;99722.24;;;6.95;30.26
65013;BME280;51715;39.432;-77.518;2024-02-26T00:29:58;99724.80;;;6.68;30.24
65013;BME280;51715;39.432;-77.518;2024-02-26T00:32:29;99727.67;;;6.71;30.71
65013;BME280;51715;39.432;-77.518;2024-02-26T00:34:57;99723.14;;;7.31;30.06
65013;BME280;51715;39.432;-77.518;2024-02-26T00:37:27;99722.45;;;6.98;30.11
65013;BME280;51715;39.432;-77.518;2024-02-26T00:39:55;99725.02;;;6.88;30.10
65013;BME280;51715;39.432;-77.518;2024-02-26T00:42:24;99722.08;;;6.86;30.43
65013;BME280;51715;39.432;-77.518;2024-02-26T00:44:53;99727.51;;;6.51;31.36
65013;BME280;51715;39.432;-77.518;2024-02-26T00:47:22;99729.14;;;6.42;31.31
65013;BME280;51715;39.432;-77.518;2024-02-26T00:49:52;99729.47;;;6.87;30.57
65013;BME280;51715;39.432;-77.518;2024-02-26T00:52:21;99726.51;;;6.96;30.64
65013;BME280;51715;39.432;-77.518;2024-02-26T00:54:49;99723.10;;;6.64;30.87
65013;BME280;51715;39.432;-77.518;2024-02-26T00:57:19;99726.29;;;7.06;30.13
65013;BME280;51715;39.432;-77.518;2024-02-26T00:59:50;99726.24;;;6.77;30.58
65013;BME280;51715;39.432;-77.518;2024-02-26T01:02:19;99727.21;;;7.01;30.42
65013;BME280;51715;39.432;-77.518;2024-02-26T01:04:47;99730.41;;;6.22;31.17
65013;BME280;51715;39.432;-77.518;2024-02-26T01:07:15;99724.08;;;6.66;31.14
65013;BME280;51715;39.432;-77.518;2024-02-26T01:09:45;99724.54;;;6.75;30.88
65013;BME280;51715;39.432;-77.518;2024-02-26T01:12:13;99719.10;;;6.42;31.36
65013;BME280;51715;39.432;-77.518;2024-02-26T01:14:42;99715.48;;;6.88;31.17
65013;BME280;51715;39.432;-77.518;2024-02-26T01:17:14;99712.90;;;6.60;31.57
65013;BME280;51715;39.432;-77.518;2024-02-26T01:19:42;99715.03;;;7.01;31.07
65013;BME280;51715;39.432;-77.518;2024-02-26T01:22:11;99712.95;;;6.33;31.68
65013;BME280;51715;39.432;-77.518;2024-02-26T01:24:39;99714.05;;;6.35;31.48
65013;BME280;51715;39.432;-77.518;2024-02-26T01:27:08;99716.23;;;6.56;31.34
65013;BME280;51715;39.432;-77.518;2024-02-26T01:29:39;99720.92;;;6.84;31.83
65013;BME280;51715;39.432;-77.518;2024-02-26T01:32:09;99721.99;;;6.55;31.92
65013;BME280;51715;39.432;-77.518;2024-02-26T01:34:37;99716.73;;;6.69;31.44
65013;BME280;51715;39.432;-77.518;2024-02-26T01:37:05;99723.87;;;7.28;30.59
65013;BME280;51715;39.432;-77.518;2024-02-26T01:39:37;99723.84;;;6.97;30.48
65013;BME280;51715;39.432;-77.518;2024-02-26T01:42:07;99728.05;;;6.54;31.20
65013;BME280;51715;39.432;-77.518;2024-02-26T01:44:35;99727.82;;;6.98;30.94
65013;BME280;51715;39.432;-77.518;2024-02-26T01:47:06;99729.85;;;7.01;30.87
65013;BME280;51715;39.432;-77.518;2024-02-26T01:49:38;99727.55;;;6.53;31.75
65013;BME280;51715;39.432;-77.518;2024-02-26T01:52:09;99729.52;;;5.89;32.36
65013;BME280;51715;39.432;-77.518;2024-02-26T01:54:39;99730.76;;;6.61;31.03
65013;BME280;51715;39.432;-77.518;2024-02-26T01:57:09;99732.82;;;7.04;30.95
65013;BME280;51715;39.432;-77.518;2024-02-26T01:59:37;99728.97;;;6.82;30.26
65013;BME280;51715;39.432;-77.518;2024-02-26T02:02:08;99730.34;;;6.00;31.96
65013;BME280;51715;39.432;-77.518;2024-02-26T02:04:41;99729.97;;;6.81;31.12
65013;BME280;51715;39.432;-77.518;2024-02-26T02:07:10;99726.77;;;6.88;30.78
65013;BME280;51715;39.432;-77.518;2024-02-26T02:09:38;99726.64;;;7.42;30.42
65013;BME280;51715;39.432;-77.518;2024-02-26T02:12:09;99727.14;;;6.94;30.17
65013;BME280;51715;39.432;-77.518;2024-02-26T02:14:43;99733.65;;;7.21;30.02
65013;BME280;51715;39.432;-77.518;2024-02-26T02:17:10;99731.06;;;7.27;30.13
65013;BME280;51715;39.432;-77.518;2024-02-26T02:19:40;99734.08;;;7.29;30.00
65013;BME280;51715;39.432;-77.518;2024-02-26T02:22:11;99734.65;;;7.14;30.01
65013;BME280;51715;39.432;-77.518;2024-02-26T02:24:40;99730.73;;;7.34;29.77
65013;BME280;51715;39.432;-77.518;2024-02-26T02:27:10;99730.78;;;7.16;30.06
65013;BME280;51715;39.432;-77.518;2024-02-26T02:29:38;99730.98;;;7.26;29.77
65013;BME280;51715;39.432;-77.518;2024-02-26T02:32:07;99729.75;;;7.23;29.68
65013;BME280;51715;39.432;-77.518;2024-02-26T02:34:36;99735.47;;;7.29;30.02
65013;BME280;51715;39.432;-77.518;2024-02-26T02:37:08;99735.79;;;7.07;30.05
65013;BME280;51715;39.432;-77.518;2024-02-26T02:39:36;99743.89;;;6.60;30.89
65013;BME280;51715;39.432;-77.518;2024-02-26T02:42:06;99739.25;;;6.92;30.50
65013;BME280;51715;39.432;-77.518;2024-02-26T02:44:33;99740.33;;;6.91;30.16
65013;BME280;51715;39.432;-77.518;2024-02-26T02:47:05;99734.11;;;6.75;30.33
65013;BME280;51715;39.432;-77.518;2024-02-26T02:49:34;99735.66;;;6.80;30.48
65013;BME280;51715;39.432;-77.518;2024-02-26T02:52:04;99738.40;;;6.38;31.16
65013;BME280;51715;39.432;-77.518;2024-02-26T02:54:34;99737.42;;;6.73;30.53
65013;BME280;51715;39.432;-77.518;2024-02-26T02:57:03;99735.58;;;6.25;31.17
65013;BME280;51715;39.432;-77.518;2024-02-26T02:59:32;99736.00;;;5.73;32.07
65013;BME280;51715;39.432;-77.518;2024-02-26T03:02:01;99735.07;;;5.76;32.04
65013;BME280;51715;39.432;-77.518;2024-02-26T03:04:29;99734.15;;;6.01;31.41
65013;BME280;51715;39.432;-77.518;2024-02-26T03:06:59;99730.25;;;5.71;31.97
65013;BME280;51715;39.432;-77.518;2024-02-26T03:09:28;99724.09;;;5.59;32.46
65013;BME280;51715;39.432;-77.518;2024-02-26T03:11:56;99722.57;;;5.63;32.45
65013;BME280;51715;39.432;-77.518;2024-02-26T03:14:26;99720.90;;;5.74;31.92
65013;BME280;51715;39.432;-77.518;2024-02-26T03:16:55;99722.93;;;5.47;32.02
65013;BME280;51715;39.432;-77.518;2024-02-26T03:19:23;99716.92;;;5.79;32.06
65013;BME280;51715;39.432;-77.518;2024-02-26T03:21:51;99712.88;;;5.42;32.50
65013;BME280;51715;39.432;-77.518;2024-02-26T03:24:18;99709.03;;;5.60;32.47
65013;BME280;51715;39.432;-77.518;2024-02-26T03:26:48;99702.69;;;5.80;32.04
65013;BME280;51715;39.432;-77.518;2024-02-26T03:29:17;99699.17;;;5.80;31.57
65013;BME280;51715;39.432;-77.518;2024-02-26T03:31:46;99697.71;;;5.26;32.39
65013;BME280;51715;39.432;-77.518;2024-02-26T03:34:14;99694.58;;;5.53;32.20
65013;BME280;51715;39.432;-77.518;2024-02-26T03:36:42;99691.84;;;5.75;32.22
65013;BME280;51715;39.432;-77.518;2024-02-26T03:39:12;99690.91;;;5.84;31.61
65013;BME280;51715;39.432;-77.518;2024-02-26T03:41:41;99684.64;;;5.70;31.83
65013;BME280;51715;39.432;-77.518;2024-02-26T03:44:09;99680.63;;;5.42;32.56
65013;BME280;51715;39.432;-77.518;2024-02-26T03:46:42;99676.26;;;4.97;33.06
65013;BME280;51715;39.432;-77.518;2024-02-26T03:49:10;99675.79;;;5.17;33.16
65013;BME280;51715;39.432;-77.518;2024-02-26T03:51:39;99672.36;;;5.60;32.71
65013;BME280;51715;39.432;-77.518;2024-02-26T03:54:07;99674.02;;;5.52;32.26
65013;BME280;51715;39.432;-77.518;2024-02-26T03:56:36;99674.32;;;5.32;32.36
65013;BME280;51715;39.432;-77.518;2024-02-26T03:59:04;99670.16;;;5.77;32.62
65013;BME280;51715;39.432;-77.518;2024-02-26T04:01:33;99669.86;;;5.49;32.08
65013;BME280;51715;39.432;-77.518;2024-02-26T04:04:05;99666.55;;;5.93;31.87
65013;BME280;51715;39.432;-77.518;2024-02-26T04:06:35;99663.91;;;5.31;33.27
65013;BME280;51715;39.432;-77.518;2024-02-26T04:09:03;99667.04;;;5.39;32.74
65013;BME280;51715;39.432;-77.518;2024-02-26T04:11:31;99663.72;;;5.63;31.91
65013;BME280;51715;39.432;-77.518;2024-02-26T04:14:02;99664.19;;;5.49;32.30
65013;BME280;51715;39.432;-77.518;2024-02-26T04:16:32;99665.47;;;5.45;32.27
65013;BME280;51715;39.432;-77.518;2024-02-26T04:19:01;99666.76;;;6.03;31.53
65013;BME280;51715;39.432;-77.518;2024-02-26T04:21:30;99666.61;;;5.65;32.03
65013;BME280;51715;39.432;-77.518;2024-02-26T04:23:58;99670.37;;;5.98;31.61
65013;BME280;51715;39.432;-77.518;2024-02-26T04:26:26;99671.35;;;6.00;31.62
65013;BME280;51715;39.432;-77.518;2024-02-26T04:28:55;99673.28;;;5.95;31.70
65013;BME280;51715;39.432;-77.518;2024-02-26T04:31:24;99671.16;;;6.21;31.25
65013;BME280;51715;39.432;-77.518;2024-02-26T04:33:52;99670.48;;;6.33;31.14
65013;BME280;51715;39.432;-77.518;2024-02-26T04:36:20;99671.28;;;5.88;31.66
65013;BME280;51715;39.432;-77.518;2024-02-26T04:38:50;99663.89;;;6.08;31.35
65013;BME280;51715;39.432;-77.518;2024-02-26T04:41:18;99657.29;;;5.99;31.41
65013;BME280;51715;39.432;-77.518;2024-02-26T04:43:47;99660.22;;;5.74;31.83
65013;BME280;51715;39.432;-77.518;2024-02-26T04:46:16;99655.88;;;6.12;31.44
65013;BME280;51715;39.432;-77.518;2024-02-26T04:48:43;99646.58;;;6.06;31.67
65013;BME280;51715;39.432;-77.518;2024-02-26T04:51:12;99644.59;;;6.06;31.62
65013;BME280;51715;39.432;-77.518;2024-02-26T04:53:40;99642.05;;;5.80;31.58
65013;BME280;51715;39.432;-77.518;2024-02-26T04:56:07;99643.38;;;6.25;31.50
65013;BME280;51715;39.432;-77.518;2024-02-26T04:58:36;99643.96;;;5.69;31.62
65013;BME280;51715;39.432;-77.518;2024-02-26T05:03:58;99647.97;;;5.73;31.47
65013;BME280;51715;39.432;-77.518;2024-02-26T05:06:26;99647.92;;;5.71;31.44
65013;BME280;51715;39.432;-77.518;2024-02-26T05:08:56;99649.65;;;5.47;31.89
65013;BME280;51715;39.432;-77.518;2024-02-26T05:11:25;99644.75;;;5.97;31.54
65013;BME280;51715;39.432;-77.518;2024-02-26T05:13:52;99644.16;;;5.68;31.60
65013;BME280;51715;39.432;-77.518;2024-02-26T05:16:20;99641.69;;;5.65;31.81
65013;BME280;51715;39.432;-77.518;2024-02-26T05:18:51;99637.18;;;5.46;32.14
65013;BME280;51715;39.432;-77.518;2024-02-26T05:21:19;99636.30;;;5.57;32.14
65013;BME280;51715;39.432;-77.518;2024-02-26T05:23:47;99637.17;;;5.48;32.43
65013;BME280;51715;39.432;-77.518;2024-02-26T05:26:20;99632.97;;;5.12;32.51
65013;BME280;51715;39.432;-77.518;2024-02-26T05:28:48;99628.37;;;4.93;32.80
65013;BME280;51715;39.432;-77.518;2024-02-26T05:31:18;99627.64;;;5.18;33.24
65013;BME280;51715;39.432;-77.518;2024-02-26T05:33:46;99630.98;;;5.04;33.78
65013;BME280;51715;39.432;-77.518;2024-02-26T05:36:20;99633.46;;;4.75;33.42
65013;BME280;51715;39.432;-77.518;2024-02-26T05:38:49;99635.94;;;4.66;33.30
65013;BME280;51715;39.432;-77.518;2024-02-26T05:41:18;99635.97;;;4.79;33.39
65013;BME280;51715;39.432;-77.518;2024-02-26T05:43:46;99631.65;;;4.52;33.16
65013;BME280;51715;39.432;-77.518;2024-02-26T05:46:14;99634.41;;;4.41;33.92
65013;BME280;51715;39.432;-77.518;2024-02-26T05:48:43;99635.53;;;4.36;33.90
65013;BME280;51715;39.432;-77.518;2024-02-26T05:51:12;99634.70;;;4.57;33.96
65013;BME280;51715;39.432;-77.518;2024-02-26T05:53:42;99632.79;;;4.51;33.98
65013;BME280;51715;39.432;-77.518;2024-02-26T05:56:11;99632.38;;;4.66;34.32
65013;BME280;51715;39.432;-77.518;2024-02-26T05:58:43;99637.57;;;4.47;34.58
65013;BME280;51715;39.432;-77.518;2024-02-26T06:01:11;99631.11;;;3.80;35.88
65013;BME280;51715;39.432;-77.518;2024-02-26T06:03:38;99625.78;;;3.95;35.96
65013;BME280;51715;39.432;-77.518;2024-02-26T06:06:08;99626.43;;;4.27;35.81
65013;BME280;51715;39.432;-77.518;2024-02-26T06:08:36;99624.62;;;4.12;35.47
65013;BME280;51715;39.432;-77.518;2024-02-26T06:11:06;99629.12;;;4.10;35.51
65013;BME280;51715;39.432;-77.518;2024-02-26T06:13:35;99627.99;;;3.83;35.85
65013;BME280;51715;39.432;-77.518;2024-02-26T06:16:03;99629.47;;;3.88;35.77
65013;BME280;51715;39.432;-77.518;2024-02-26T06:18:33;99632.85;;;3.60;36.96
65013;BME280;51715;39.432;-77.518;2024-02-26T06:21:01;99631.78;;;3.49;36.60
65013;BME280;51715;39.432;-77.518;2024-02-26T06:23:29;99634.21;;;3.58;37.27
65013;BME280;51715;39.432;-77.518;2024-02-26T06:25:58;99633.30;;;3.95;36.96
65013;BME280;51715;39.432;-77.518;2024-02-26T06:28:26;99630.71;;;3.72;36.32
65013;BME280;51715;39.432;-77.518;2024-02-26T06:30:55;99627.57;;;3.90;36.05
65013;BME280;51715;39.432;-77.518;2024-02-26T06:33:23;99627.24;;;3.36;37.18
65013;BME280;51715;39.432;-77.518;2024-02-26T06:35:51;99619.73;;;3.67;36.92
65013;BME280;51715;39.432;-77.518;2024-02-26T06:38:20;99617.66;;;3.85;36.96
65013;BME280;51715;39.432;-77.518;2024-02-26T06:40:49;99611.92;;;3.93;36.76
65013;BME280;51715;39.432;-77.518;2024-02-26T06:43:18;99606.98;;;3.71;36.74
65013;BME280;51715;39.432;-77.518;2024-02-26T06:45:48;99602.71;;;4.18;36.34
65013;BME280;51715;39.432;-77.518;2024-02-26T06:48:16;99599.02;;;4.19;36.32
65013;BME280;51715;39.432;-77.518;2024-02-26T06:50:43;99595.02;;;4.01;36.24
65013;BME280;51715;39.432;-77.518;2024-02-26T06:53:13;99590.07;;;4.18;35.80
65013;BME280;51715;39.432;-77.518;2024-02-26T06:55:41;99594.33;;;4.60;35.97
65013;BME280;51715;39.432;-77.518;2024-02-26T06:58:09;99601.73;;;4.45;35.81
65013;BME280;51715;39.432;-77.518;2024-02-26T07:00:40;99603.21;;;4.52;35.46
65013;BME280;51715;39.432;-77.518;2024-02-26T07:03:09;99598.27;;;4.40;35.24
65013;BME280;51715;39.432;-77.518;2024-02-26T07:05:38;99597.68;;;4.39;35.96
65013;BME280;51715;39.432;-77.518;2024-02-26T07:08:07;99593.08;;;4.64;35.93
65013;BME280;51715;39.432;-77.518;2024-02-26T07:10:35;99594.62;;;5.10;35.55
65013;BME280;51715;39.432;-77.518;2024-02-26T07:13:03;99603.06;;;4.73;35.24
65013;BME280;51715;39.432;-77.518;2024-02-26T07:15:32;99608.21;;;5.04;34.89
65013;BME280;51715;39.432;-77.518;2024-02-26T07:18:00;99605.44;;;4.87;34.93
65013;BME280;51715;39.432;-77.518;2024-02-26T07:20:27;99601.04;;;4.78;35.98
65013;BME280;51715;39.432;-77.518;2024-02-26T07:22:56;99594.68;;;4.64;36.45
65013;BME280;51715;39.432;-77.518;2024-02-26T07:25:25;99592.83;;;4.66;36.51
65013;BME280;51715;39.432;-77.518;2024-02-26T07:27:52;99590.29;;;5.04;36.25
65013;BME280;51715;39.432;-77.518;2024-02-26T07:30:21;99589.92;;;4.96;36.05
65013;BME280;51715;39.432;-77.518;2024-02-26T07:32:50;99592.72;;;4.99;35.94
65013;BME280;51715;39.432;-77.518;2024-02-26T07:35:20;99587.83;;;5.12;35.59
65013;BME280;51715;39.432;-77.518;2024-02-26T07:37:49;99591.64;;;5.24;35.38
65013;BME280;51715;39.432;-77.518;2024-02-26T07:40:20;99592.40;;;5.21;35.93
65013;BME280;51715;39.432;-77.518;2024-02-26T07:42:48;99593.58;;;5.24;35.69
65013;BME280;51715;39.432;-77.518;2024-02-26T07:45:17;99590.60;;;5.30;35.81
65013;BME280;51715;39.432;-77.518;2024-02-26T07:47:45;99594.09;;;5.46;35.40
65013;BME280;51715;39.432;-77.518;2024-02-26T07:50:13;99592.41;;;5.48;35.39
65013;BME280;51715;39.432;-77.518;2024-02-26T07:52:42;99588.38;;;5.62;35.47
65013;BME280;51715;39.432;-77.518;2024-02-26T07:55:10;99590.36;;;5.52;35.83
65013;BME280;51715;39.432;-77.518;2024-02-26T07:57:41;99591.89;;;5.41;35.59
65013;BME280;51715;39.432;-77.518;2024-02-26T08:00:13;99592.80;;;5.38;35.89
65013;BME280;51715;39.432;-77.518;2024-02-26T08:02:42;99584.11;;;5.21;35.68
65013;BME280;51715;39.432;-77.518;2024-02-26T08:05:10;99579.69;;;5.55;35.63
65013;BME280;51715;39.432;-77.518;2024-02-26T08:07:38;99579.19;;;5.89;35.45
65013;BME280;51715;39.432;-77.518;2024-02-26T08:10:08;99576.68;;;5.85;35.81
65013;BME280;51715;39.432;-77.518;2024-02-26T08:12:37;99573.48;;;5.69;35.60
65013;BME280;51715;39.432;-77.518;2024-02-26T08:15:06;99573.24;;;5.87;35.89
65013;BME280;51715;39.432;-77.518;2024-02-26T08:17:36;99569.46;;;5.94;35.62
65013;BME280;51715;39.432;-77.518;2024-02-26T08:20:08;99570.20;;;5.93;36.06
65013;BME280;51715;39.432;-77.518;2024-02-26T08:22:36;99564.37;;;5.83;35.68
65013;BME280;51715;39.432;-77.518;2024-02-26T08:25:05;99566.91;;;5.66;35.24
65013;BME280;51715;39.432;-77.518;2024-02-26T08:27:33;99561.14;;;5.96;35.11
65013;BME280;51715;39.432;-77.518;2024-02-26T08:30:02;99559.01;;;5.78;35.59
65013;BME280;51715;39.432;-77.518;2024-02-26T08:32:30;99559.08;;;5.81;35.68
65013;BME280;51715;39.432;-77.518;2024-02-26T08:34:59;99557.70;;;5.51;35.93
65013;BME280;51715;39.432;-77.518;2024-02-26T08:37:27;99562.25;;;5.75;36.27
65013;BME280;51715;39.432;-77.518;2024-02-26T08:39:55;99563.38;;;5.48;36.21
65013;BME280;51715;39.432;-77.518;2024-02-26T08:42:24;99555.54;;;5.55;35.68
65013;BME280;51715;39.432;-77.518;2024-02-26T08:44:52;99553.80;;;5.41;35.41
65013;BME280;51715;39.432;-77.518;2024-02-26T08:47:20;99550.99;;;5.54;35.94
65013;BME280;51715;39.432;-77.518;2024-02-26T08:49:49;99549.24;;;5.51;36.05
65013;BME280;51715;39.432;-77.518;2024-02-26T08:52:17;99548.56;;;5.53;36.50
65013;BME280;51715;39.432;-77.518;2024-02-26T08:54:45;99547.88;;;5.50;36.66
65013;BME280;51715;39.432;-77.518;2024-02-26T08:57:12;99550.56;;;5.59;36.31
65013;BME280;51715;39.432;-77.518;2024-02-26T08:59:44;99550.59;;;5.38;35.87
65013;BME280;51715;39.432;-77.518;2024-02-26T09:02:13;99554.13;;;5.12;35.53
65013;BME280;51715;39.432;-77.518;2024-02-26T09:04:41;99552.43;;;5.64;35.67
65013;BME280;51715;39.432;-77.518;2024-02-26T09:07:09;99554.45;;;5.65;35.64
65013;BME280;51715;39.432;-77.518;2024-02-26T09:09:37;99553.19;;;5.62;35.82
65013;BME280;51715;39.432;-77.518;2024-02-26T09:12:06;99558.19;;;5.50;36.09
65013;BME280;51715;39.432;-77.518;2024-02-26T09:14:36;99558.29;;;5.37;36.06
65013;BME280;51715;39.432;-77.518;2024-02-26T09:17:04;99558.36;;;5.07;35.78
65013;BME280;51715;39.432;-77.518;2024-02-26T09:19:32;99560.44;;;5.47;35.74
65013;BME280;51715;39.432;-77.518;2024-02-26T09:22:00;99557.41;;;5.14;35.63
65013;BME280;51715;39.432;-77.518;2024-02-26T09:24:28;99558.43;;;5.04;36.10
65013;BME280;51715;39.432;-77.518;2024-02-26T09:26:56;99557.09;;;5.16;36.27
65013;BME280;51715;39.432;-77.518;2024-02-26T09:29:26;99551.05;;;4.77;36.53
65013;BME280;51715;39.432;-77.518;2024-02-26T09:31:54;99551.77;;;5.14;36.66
65013;BME280;51715;39.432;-77.518;2024-02-26T09:34:22;99550.26;;;4.78;37.22
65013;BME280;51715;39.432;-77.518;2024-02-26T09:36:50;99554.34;;;4.43;37.47
65013;BME280;51715;39.432;-77.518;2024-02-26T09:39:18;99557.15;;;4.54;37.08
65013;BME280;51715;39.432;-77.518;2024-02-26T09:41:46;99557.25;;;4.58;36.65
65013;BME280;51715;39.432;-77.518;2024-02-26T09:44:18;99555.21;;;4.53;36.62
65013;BME280;51715;39.432;-77.518;2024-02-26T09:46:48;99555.23;;;4.69;36.90
65013;BME280;51715;39.432;-77.518;2024-02-26T09:49:18;99554.00;;;4.28;37.32
65013;BME280;51715;39.432;-77.518;2024-02-26T09:51:49;99553.53;;;4.37;37.66
65013;BME280;51715;39.432;-77.518;2024-02-26T09:54:19;99559.51;;;4.43;37.53
65013;BME280;51715;39.432;-77.518;2024-02-26T09:56:49;99558.75;;;4.40;37.47
65013;BME280;51715;39.432;-77.518;2024-02-26T09:59:18;99558.19;;;4.37;37.23
65013;BME280;51715;39.432;-77.518;2024-02-26T10:01:47;99560.11;;;4.42;37.16
65013;BME280;51715;39.432;-77.518;2024-02-26T10:04:15;99556.12;;;4.24;37.57
65013;BME280;51715;39.432;-77.518;2024-02-26T10:06:45;99555.66;;;4.10;37.77
65013;BME280;51715;39.432;-77.518;2024-02-26T10:09:14;99550.77;;;3.77;37.99
65013;BME280;51715;39.432;-77.518;2024-02-26T10:11:43;99552.88;;;4.04;37.82
65013;BME280;51715;39.432;-77.518;2024-02-26T10:14:14;99556.88;;;4.03;37.57
65013;BME280;51715;39.432;-77.518;2024-02-26T10:16:43;99554.07;;;3.98;37.33
65013;BME280;51715;39.432;-77.518;2024-02-26T10:19:25;99556.40;;;3.88;37.27
65013;BME280;51715;39.432;-77.518;2024-02-26T10:21:57;99554.54;;;3.92;37.65
65013;BME280;51715;39.432;-77.518;2024-02-26T10:24:27;99558.73;;;3.76;37.50
65013;BME280;51715;39.432;-77.518;2024-02-26T10:26:56;99561.41;;;3.96;37.25
65013;BME280;51715;39.432;-77.518;2024-02-26T10:29:25;99562.03;;;4.14;37.37
65013;BME280;51715;39.432;-77.518;2024-02-26T10:31:59;99563.42;;;3.53;37.57
65013;BME280;51715;39.432;-77.518;2024-02-26T10:34:28;99563.26;;;3.56;37.61
65013;BME280;51715;39.432;-77.518;2024-02-26T10:36:57;99568.05;;;3.73;37.45
65013;BME280;51715;39.432;-77.518;2024-02-26T10:39:25;99567.82;;;3.87;37.26
65013;BME280;51715;39.432;-77.518;2024-02-26T10:41:53;99571.21;;;3.54;37.20
65013;BME280;51715;39.432;-77.518;2024-02-26T10:44:21;99571.68;;;3.52;37.53
65013;BME280;51715;39.432;-77.518;2024-02-26T10:46:50;99572.17;;;3.77;37.55
65013;BME280;51715;39.432;-77.518;2024-02-26T10:49:19;99573.95;;;3.43;37.50
65013;BME280;51715;39.432;-77.518;2024-02-26T10:51:55;99577.58;;;3.15;37.61
65013;BME280;51715;39.432;-77.518;2024-02-26T10:54:27;99577.24;;;3.34;37.96
65013;BME280;51715;39.432;-77.518;2024-02-26T10:56:58;99576.10;;;3.60;37.98
65013;BME280;51715;39.432;-77.518;2024-02-26T10:59:27;99582.02;;;3.30;38.75
65013;BME280;51715;39.432;-77.518;2024-02-26T11:01:55;99579.49;;;3.35;38.90
65013;BME280;51715;39.432;-77.518;2024-02-26T11:04:25;99578.75;;;3.17;38.74
65013;BME280;51715;39.432;-77.518;2024-02-26T11:06:55;99579.21;;;3.51;38.39
65013;BME280;51715;39.432;-77.518;2024-02-26T11:09:25;99575.33;;;3.50;38.18
65013;BME280;51715;39.432;-77.518;2024-02-26T11:11:57;99583.22;;;3.51;37.99
65013;BME280;51715;39.432;-77.518;2024-02-26T11:14:26;99585.32;;;3.22;38.07
65013;BME280;51715;39.432;-77.518;2024-02-26T11:16:58;99587.55;;;3.41;38.27
65013;BME280;51715;39.432;-77.518;2024-02-26T11:19:28;99589.21;;;3.26;38.71
65013;BME280;51715;39.432;-77.518;2024-02-26T11:21:58;99594.25;;;3.17;38.89
65013;BME280;51715;39.432;-77.518;2024-02-26T11:24:27;99588.05;;;3.19;38.60
65013;BME280;51715;39.432;-77.518;2024-02-26T11:27:00;99590.41;;;3.19;38.64
65013;BME280;51715;39.432;-77.518;2024-02-26T11:29:32;99586.15;;;2.77;39.94
65013;BME280;51715;39.432;-77.518;2024-02-26T11:32:04;99590.12;;;2.84;39.57
65013;BME280;51715;39.432;-77.518;2024-02-26T11:34:32;99593.95;;;3.00;39.76
65013;BME280;51715;39.432;-77.518;2024-02-26T11:37:11;99593.36;;;2.80;39.49
65013;BME280;51715;39.432;-77.518;2024-02-26T11:39:42;99591.13;;;2.32;40.34
65013;BME280;51715;39.432;-77.518;2024-02-26T11:42:15;99595.37;;;2.62;40.13
65013;BME280;51715;39.432;-77.518;2024-02-26T11:44:46;99593.90;;;2.97;39.91
65013;BME280;51715;39.432;-77.518;2024-02-26T11:47:20;99598.40;;;2.89;39.60
65013;BME280;51715;39.432;-77.518;2024-02-26T11:49:50;99600.24;;;3.08;39.30
65013;BME280;51715;39.432;-77.518;2024-02-26T11:52:18;99594.91;;;3.01;39.23
65013;BME280;51715;39.432;-77.518;2024-02-26T11:54:47;99591.49;;;2.79;39.80
65013;BME280;51715;39.432;-77.518;2024-02-26T11:57:24;99588.75;;;2.99;39.61
65013;BME280;51715;39.432;-77.518;2024-02-26T11:59:52;99590.30;;;2.66;39.87
65013;BME280;51715;39.432;-77.518;2024-02-26T12:02:54;99593.23;;;2.55;39.78
65013;BME280;51715;39.432;-77.518;2024-02-26T12:05:23;99589.78;;;2.94;39.50
65013;BME280;51715;39.432;-77.518;2024-02-26T12:07:59;99591.61;;;2.86;39.90
65013;BME280;51715;39.432;-77.518;2024-02-26T12:10:30;99595.81;;;2.81;39.71
65013;BME280;51715;39.432;-77.518;2024-02-26T12:13:00;99598.17;;;3.00;39.16
65013;BME280;51715;39.432;-77.518;2024-02-26T12:15:32;99595.21;;;3.25;39.19
65013;BME280;51715;39.432;-77.518;2024-02-26T12:18:02;99592.90;;;3.11;39.04
65013;BME280;51715;39.432;-77.518;2024-02-26T12:20:31;99589.84;;;3.09;38.88
65013;BME280;51715;39.432;-77.518;2024-02-26T12:23:03;99593.65;;;3.14;39.46
65013;BME280;51715;39.432;-77.518;2024-02-26T12:25:32;99592.01;;;3.61;39.26
65013;BME280;51715;39.432;-77.518;2024-02-26T12:28:01;99590.17;;;3.33;38.90
65013;BME280;51715;39.432;-77.518;2024-02-26T12:30:33;99586.81;;;3.53;38.72
65013;BME280;51715;39.432;-77.518;2024-02-26T12:33:01;99587.04;;;3.77;38.56
65013;BME280;51715;39.432;-77.518;2024-02-26T12:35:31;99588.83;;;3.92;38.57
65013;BME280;51715;39.432;-77.518;2024-02-26T12:38:00;99590.33;;;3.84;39.66
65013;BME280;51715;39.432;-77.518;2024-02-26T12:40:28;99589.98;;;4.00;39.40
65013;BME280;51715;39.432;-77.518;2024-02-26T12:42:56;99589.44;;;4.43;38.91
65013;BME280;51715;39.432;-77.518;2024-02-26T12:45:25;99590.69;;;4.48;38.78
65013;BME280;51715;39.432;-77.518;2024-02-26T12:47:57;99591.06;;;4.90;37.73
65013;BME280;51715;39.432;-77.518;2024-02-26T12:50:29;99597.92;;;4.89;37.17
65013;BME280;51715;39.432;-77.518;2024-02-26T12:52:59;99603.23;;;5.03;37.29
65013;BME280;51715;39.432;-77.518;2024-02-26T12:55:29;99609.56;;;4.77;38.10
65013;BME280;51715;39.432;-77.518;2024-02-26T12:57:57;99610.39;;;4.89;38.18
65013;BME280;51715;39.432;-77.518;2024-02-26T13:00:31;99610.78;;;4.87;38.40
65013;BME280;51715;39.432;-77.518;2024-02-26T13:03:00;99619.37;;;5.29;38.02